createdAt,value
2019-04-21T00:00:54.250Z,150.87
2019-04-21T00:03:26.048Z,151.83
2019-04-21T00:06:09.415Z,158.97
2019-04-21T00:08:41.799Z,155.20
2019-04-21T00:11:20.629Z,156.30
2019-04-21T00:13:38.812Z,162.60
2019-04-21T00:16:00.252Z,158.77
2019-04-21T00:18:47.998Z,154.57
2019-04-21T00:21:18.318Z,153.23
2019-04-21T00:24:01.620Z,151.13
2019-04-21T00:26:33.534Z,156.13
2019-04-21T00:29:09.725Z,152.30
2019-04-21T00:31:36.679Z,154.47
2019-04-21T00:33:50.106Z,151.33
2019-04-21T00:36:27.380Z,151.57
2019-04-21T00:39:26.529Z,153.60
2019-04-21T00:41:43.928Z,155.83
2019-04-21T00:44:08.671Z,153.87
2019-04-21T00:46:45.214Z,155.30
2019-04-21T00:49:16.945Z,152.90
2019-04-21T00:52:25.141Z,151.07
2019-04-21T00:54:50.101Z,152.90
2019-04-21T00:57:19.610Z,153.57
2019-04-21T00:59:46.466Z,153.33
2019-04-21T01:02:16.873Z,150.20
2019-04-21T01:04:49.654Z,160.97
2019-04-21T01:07:21.990Z,150.17
2019-04-21T01:09:45.045Z,152.53
2019-04-21T01:12:28.275Z,149.27
2019-04-21T01:15:07.425Z,151.47
2019-04-21T01:17:29.058Z,148.27
2019-04-21T01:19:56.037Z,149.83
2019-04-21T01:22:10.176Z,153.53
2019-04-21T01:24:43.846Z,154.43
2019-04-21T01:27:22.425Z,148.80
2019-04-21T01:30:05.676Z,153.07
2019-04-21T01:32:34.391Z,153.10
2019-04-21T01:35:11.102Z,152.73
2019-04-21T01:37:44.053Z,152.50
2019-04-21T01:40:16.867Z,156.47
2019-04-21T01:42:43.612Z,149.67
2019-04-21T01:45:09.904Z,149.93
2019-04-21T01:47:40.502Z,151.93
2019-04-21T01:50:05.700Z,154.10
2019-04-21T01:52:51.485Z,148.30
2019-04-21T01:55:30.836Z,152.30
2019-04-21T01:58:09.723Z,152.20
2019-04-21T02:00:45.588Z,155.87
2019-04-21T02:03:40.659Z,156.50
2019-04-21T02:05:59.660Z,168.17
2019-04-21T02:08:21.962Z,152.70
2019-04-21T02:11:03.378Z,155.80
2019-04-21T02:13:23.142Z,154.33
2019-04-21T02:16:02.154Z,155.57
2019-04-21T02:18:28.770Z,152.53
2019-04-21T02:20:55.305Z,150.10
2019-04-21T02:23:41.198Z,151.07
2019-04-21T02:26:03.867Z,155.90
2019-04-21T02:28:42.431Z,165.90
2019-04-21T02:31:22.763Z,156.50
2019-04-21T02:33:56.202Z,159.17
2019-04-21T02:36:32.787Z,153.17
2019-04-21T02:38:55.972Z,155.67
2019-04-21T02:41:24.941Z,155.40
2019-04-21T02:44:00.633Z,152.77
2019-04-21T02:46:35.818Z,149.87
2019-04-21T02:49:06.272Z,155.63
2019-04-21T02:51:33.693Z,156.63
2019-04-21T02:54:37.337Z,154.63
2019-04-21T02:56:33.809Z,156.83
2019-04-21T02:59:30.482Z,149.50
2019-04-21T03:02:27.153Z,154.57
2019-04-21T03:04:42.602Z,152.50
2019-04-21T03:12:17.928Z,151.93
2019-04-21T03:15:08.062Z,148.57
2019-04-21T03:22:32.251Z,151.73
2019-04-21T03:30:21.324Z,152.93
2019-04-21T03:33:13.944Z,151.00
2019-04-21T03:35:54.322Z,148.93
2019-04-21T03:37:37.205Z,149.30
2019-04-21T03:40:16.698Z,160.13
2019-04-21T03:42:53.042Z,153.33
2019-04-21T03:45:25.107Z,154.67
2019-04-21T03:47:50.171Z,151.57
2019-04-21T03:50:22.657Z,152.97
2019-04-21T03:52:53.297Z,156.67
2019-04-21T03:58:23.973Z,183.03
2019-04-21T04:11:12.001Z,167.17
2019-04-21T04:13:48.035Z,164.37
2019-04-21T04:16:11.888Z,169.47
2019-04-21T04:23:49.368Z,179.43
2019-04-21T04:26:19.121Z,184.07
2019-04-21T04:31:28.777Z,184.60
2019-04-21T04:39:25.804Z,171.10
2019-04-21T04:42:08.107Z,171.13
2019-04-21T04:44:51.594Z,168.27
2019-04-21T04:47:05.549Z,166.83
2019-04-21T05:02:30.427Z,168.23
2019-04-21T05:04:46.288Z,172.97
2019-04-21T05:07:13.899Z,167.87
2019-04-21T05:09:48.032Z,167.53
2019-04-21T05:12:08.943Z,167.73
2019-04-21T05:14:48.245Z,166.30
2019-04-21T05:17:24.941Z,167.00
2019-04-21T05:24:37.519Z,175.60
2019-04-21T05:27:25.496Z,175.63
2019-04-21T05:30:09.373Z,181.27
2019-04-21T05:33:09.188Z,180.20
2019-04-21T05:36:09.392Z,170.50
2019-04-21T05:38:57.087Z,173.23
2019-04-21T05:41:31.375Z,170.47
2019-04-21T05:44:12.827Z,175.67
2019-04-21T05:46:52.318Z,171.93
2019-04-21T05:49:25.321Z,176.60
2019-04-21T05:51:58.324Z,178.33
2019-04-21T05:57:05.307Z,173.40
2019-04-21T05:59:40.021Z,177.80
2019-04-21T06:02:18.569Z,176.83
2019-04-21T06:07:18.794Z,185.67
2019-04-21T06:09:52.489Z,180.50
2019-04-21T06:12:16.124Z,172.17
2019-04-21T06:17:25.290Z,175.33
2019-04-21T06:20:07.856Z,177.13
2019-04-21T06:22:22.144Z,171.20
2019-04-21T06:25:21.687Z,172.23
2019-04-21T06:27:34.338Z,171.87
2019-04-21T06:30:00.194Z,173.37
2019-04-21T06:42:51.355Z,174.30
2019-04-21T06:45:25.767Z,174.20
2019-04-21T06:47:52.420Z,176.50
2019-04-21T06:50:22.734Z,176.83
2019-04-21T06:55:21.625Z,177.27
2019-04-21T06:57:51.716Z,177.80
2019-04-21T07:00:22.732Z,181.47
2019-04-21T07:03:01.204Z,176.53
2019-04-21T07:05:37.594Z,176.00
2019-04-21T07:08:14.863Z,174.13
2019-04-21T07:10:33.824Z,175.40
2019-04-21T07:12:58.309Z,180.53
2019-04-21T07:15:41.988Z,181.60
2019-04-21T07:18:08.991Z,179.70
2019-04-21T07:20:36.725Z,176.40
2019-04-21T07:23:09.312Z,177.30
2019-04-21T07:25:41.216Z,177.30
2019-04-21T07:28:12.849Z,178.37
2019-04-21T07:30:43.662Z,175.70
2019-04-21T07:33:44.726Z,178.30
2019-04-21T07:35:45.715Z,177.80
2019-04-21T07:38:16.667Z,178.50
2019-04-21T07:40:42.647Z,175.80
2019-04-21T07:43:16.654Z,176.77
2019-04-21T07:45:45.972Z,181.93
2019-04-21T07:48:24.701Z,186.67
2019-04-21T07:51:12.520Z,182.93
2019-04-21T07:53:53.335Z,181.93
2019-04-21T07:55:59.372Z,182.27
2019-04-21T07:58:53.418Z,186.50
2019-04-21T08:01:22.576Z,212.53
2019-04-21T08:03:49.064Z,192.87
2019-04-21T08:06:22.724Z,185.67
2019-04-21T08:08:52.901Z,185.93
2019-04-21T08:11:24.349Z,181.63
2019-04-21T08:13:55.047Z,181.10
2019-04-21T08:16:35.103Z,185.60
2019-04-21T08:18:59.777Z,185.37
2019-04-21T08:21:36.993Z,182.27
2019-04-21T08:24:00.165Z,183.13
2019-04-21T08:26:36.979Z,183.40
2019-04-21T08:29:13.241Z,181.63
2019-04-21T08:31:53.029Z,182.80
2019-04-21T08:34:13.885Z,180.23
2019-04-21T08:36:41.386Z,180.27
2019-04-21T08:39:12.985Z,179.93
2019-04-21T08:41:44.812Z,179.23
2019-04-21T08:44:24.347Z,184.43
2019-04-21T08:46:49.036Z,186.63
2019-04-21T08:49:15.536Z,180.03
2019-04-21T08:51:53.882Z,174.87
2019-04-21T08:54:23.543Z,175.67
2019-04-21T08:57:19.674Z,187.27
2019-04-21T09:00:05.138Z,179.07
2019-04-21T09:03:02.461Z,181.63
2019-04-21T09:05:04.676Z,176.10
2019-04-21T09:07:41.324Z,178.07
2019-04-21T09:10:10.796Z,183.77
2019-04-21T09:12:43.326Z,183.10
2019-04-21T09:15:14.402Z,177.17
2019-04-21T09:17:39.210Z,183.93
2019-04-21T09:20:17.322Z,180.23
2019-04-21T09:22:47.865Z,185.07
2019-04-21T09:25:19.699Z,183.00
2019-04-21T09:27:48.919Z,184.23
2019-04-21T09:30:06.542Z,184.03
2019-04-21T09:32:37.074Z,184.23
2019-04-21T09:35:11.273Z,183.57
2019-04-21T09:37:49.535Z,181.47
2019-04-21T09:40:13.500Z,181.10
2019-04-21T09:42:53.097Z,179.50
2019-04-21T09:45:15.792Z,180.87
2019-04-21T09:47:55.674Z,180.53
2019-04-21T09:50:17.578Z,182.00
2019-04-21T09:52:54.761Z,182.07
2019-04-21T09:55:22.542Z,185.20
2019-04-21T09:57:55.703Z,177.67
2019-04-21T10:00:26.603Z,181.27
2019-04-21T10:03:00.606Z,186.00
2019-04-21T10:05:27.329Z,180.50
2019-04-21T10:07:57.488Z,181.60
2019-04-21T10:10:27.609Z,178.80
2019-04-21T10:12:57.721Z,177.83
2019-04-21T10:15:28.300Z,176.90
2019-04-21T10:18:02.618Z,178.93
2019-04-21T10:20:32.929Z,179.00
2019-04-21T10:23:02.955Z,186.03
2019-04-21T10:25:32.832Z,181.60
2019-04-21T10:28:03.317Z,177.70
2019-04-21T10:30:33.445Z,180.73
2019-04-21T10:33:04.017Z,177.70
2019-04-21T10:35:35.148Z,180.43
2019-04-21T10:38:16.992Z,176.50
2019-04-21T10:40:37.324Z,178.17
2019-04-21T10:43:10.035Z,182.23
2019-04-21T10:45:39.159Z,178.57
2019-04-21T10:48:10.675Z,178.37
2019-04-21T10:50:41.152Z,176.23
2019-04-21T10:53:16.590Z,181.50
2019-04-21T10:56:01.586Z,177.83
2019-04-21T10:58:40.379Z,180.40
2019-04-21T11:01:31.356Z,176.13
2019-04-21T11:04:32.371Z,174.87
2019-04-21T11:07:06.683Z,179.07
2019-04-21T11:09:29.879Z,174.37
2019-04-21T11:12:00.029Z,182.67
2019-04-21T11:14:29.748Z,178.77
2019-04-21T11:17:00.526Z,179.37
2019-04-21T11:19:30.748Z,176.03
2019-04-21T11:22:01.024Z,179.07
2019-04-21T11:24:31.381Z,177.63
2019-04-21T11:27:01.858Z,180.77
2019-04-21T11:29:33.100Z,174.10
2019-04-21T11:32:03.124Z,174.83
2019-04-21T11:34:33.462Z,173.97
2019-04-21T11:37:06.051Z,175.10
2019-04-21T11:39:45.839Z,175.60
2019-04-21T11:42:17.618Z,177.83
2019-04-21T11:44:47.426Z,179.43
2019-04-21T11:47:24.663Z,178.43
2019-04-21T11:49:54.952Z,178.43
2019-04-21T11:52:25.074Z,182.77
2019-04-21T11:54:55.187Z,179.17
2019-04-21T11:57:30.428Z,177.27
2019-04-21T11:59:57.517Z,175.33
2019-04-21T12:02:27.648Z,177.43
2019-04-21T12:04:57.527Z,177.87
2019-04-21T12:07:29.306Z,178.30
2019-04-21T12:09:59.694Z,174.17
2019-04-21T12:12:29.632Z,178.90
2019-04-21T12:14:59.916Z,184.43
2019-04-21T12:17:30.058Z,180.13
2019-04-21T12:20:01.030Z,178.47
2019-04-21T12:22:33.958Z,175.23
2019-04-21T12:25:07.062Z,177.53
2019-04-21T12:27:38.028Z,180.00
2019-04-21T12:30:09.439Z,183.63
2019-04-21T12:32:56.097Z,179.30
2019-04-21T12:35:28.002Z,176.90
2019-04-21T12:37:58.519Z,174.53
2019-04-21T12:40:28.535Z,176.57
2019-04-21T12:42:58.809Z,178.30
2019-04-21T12:45:28.671Z,177.27
2019-04-21T12:47:59.955Z,175.70
2019-04-21T12:50:30.119Z,179.13
2019-04-21T12:53:00.004Z,176.90
2019-04-21T12:55:36.637Z,176.63
2019-04-21T12:58:03.483Z,175.40
2019-04-21T13:00:33.476Z,180.70
2019-04-21T13:03:03.637Z,181.50
2019-04-21T13:05:33.927Z,178.77
2019-04-21T13:08:03.901Z,181.80
2019-04-21T13:10:34.028Z,178.13
2019-04-21T13:13:03.999Z,179.43
2019-04-21T13:15:33.732Z,179.83
2019-04-21T13:18:04.635Z,177.53
2019-04-21T13:20:35.878Z,180.13
2019-04-21T13:23:06.044Z,178.03
2019-04-21T13:25:36.252Z,177.00
2019-04-21T13:28:06.968Z,182.07
2019-04-21T13:30:38.077Z,181.17
2019-04-21T13:33:09.146Z,179.97
2019-04-21T13:35:39.200Z,177.67
2019-04-21T13:38:20.034Z,182.13
2019-04-21T13:41:05.361Z,182.47
2019-04-21T13:43:23.266Z,178.87
2019-04-21T13:45:54.085Z,179.80
2019-04-21T13:48:24.397Z,178.50
2019-04-21T13:50:55.297Z,179.93
2019-04-21T13:53:25.233Z,176.47
2019-04-21T13:55:56.424Z,179.20
2019-04-21T13:58:26.442Z,176.67
2019-04-21T14:00:56.228Z,176.60
2019-04-21T14:03:26.751Z,175.40
2019-04-21T14:05:58.187Z,179.53
2019-04-21T14:08:47.169Z,176.23
2019-04-21T14:11:17.625Z,177.03
2019-04-21T14:13:48.587Z,176.17
2019-04-21T14:16:18.271Z,176.30
2019-04-21T14:18:47.935Z,177.03
2019-04-21T14:21:18.837Z,178.43
2019-04-21T14:23:52.133Z,176.97
2019-04-21T14:26:20.326Z,179.37
2019-04-21T14:28:51.251Z,177.57
2019-04-21T14:31:22.204Z,176.60
2019-04-21T14:33:52.137Z,176.97
2019-04-21T14:36:23.007Z,178.07
2019-04-21T14:38:54.422Z,179.60
2019-04-21T14:41:24.324Z,176.73
2019-04-21T14:43:55.120Z,175.87
2019-04-21T14:46:31.209Z,178.53
2019-04-21T14:49:13.142Z,176.47
2019-04-21T14:51:53.186Z,177.03
2019-04-21T14:54:40.406Z,177.53
2019-04-21T14:57:11.446Z,177.50
2019-04-21T14:59:42.718Z,176.60
2019-04-21T15:02:14.071Z,177.90
2019-04-21T15:04:43.972Z,176.00
2019-04-21T15:07:14.929Z,173.53
2019-04-21T15:09:46.365Z,177.60
2019-04-21T15:12:16.357Z,177.37
2019-04-21T15:14:47.579Z,177.23
2019-04-21T15:17:20.695Z,178.60
2019-04-21T15:19:56.084Z,175.70
2019-04-21T15:22:20.746Z,178.27
2019-04-21T15:24:52.022Z,178.03
2019-04-21T15:27:23.125Z,175.37
2019-04-21T15:29:53.087Z,175.63
2019-04-21T15:32:22.800Z,174.00
2019-04-21T15:34:52.523Z,173.30
2019-04-21T15:37:22.218Z,176.53
2019-04-21T15:39:53.069Z,176.13
2019-04-21T15:42:24.355Z,179.00
2019-04-21T15:44:54.636Z,177.40
2019-04-21T15:47:26.113Z,179.23
2019-04-21T15:50:02.999Z,178.17
2019-04-21T15:52:29.805Z,181.23
2019-04-21T15:55:05.995Z,176.93
2019-04-21T15:57:54.818Z,176.70
2019-04-21T16:00:36.096Z,176.73
2019-04-21T16:03:06.802Z,179.00
2019-04-21T16:05:37.124Z,177.40
2019-04-21T16:08:07.902Z,175.70
2019-04-21T16:10:52.630Z,177.40
2019-04-21T16:13:17.108Z,179.73
2019-04-21T16:15:48.340Z,173.97
2019-04-21T16:18:18.372Z,175.87
2019-04-21T16:20:48.284Z,175.83
2019-04-21T16:23:18.278Z,176.27
2019-04-21T16:25:48.742Z,179.57
2019-04-21T16:28:19.280Z,175.67
2019-04-21T16:30:49.095Z,178.30
2019-04-21T16:33:18.886Z,175.53
2019-04-21T16:35:49.555Z,181.33
2019-04-21T16:38:19.698Z,177.17
2019-04-21T16:40:56.391Z,179.50
2019-04-21T16:43:22.798Z,175.83
2019-04-21T16:45:52.947Z,178.57
2019-04-21T16:48:23.322Z,179.83
2019-04-21T16:50:53.330Z,176.30
2019-04-21T16:53:34.132Z,177.37
2019-04-21T16:56:13.023Z,175.20
2019-04-21T16:58:52.610Z,181.00
2019-04-21T17:01:27.640Z,175.53
2019-04-21T17:03:58.310Z,177.63
2019-04-21T17:06:29.403Z,178.07
2019-04-21T17:08:59.178Z,174.93
2019-04-21T17:11:31.528Z,177.07
2019-04-21T17:14:00.714Z,174.73
2019-04-21T17:17:09.945Z,178.20
2019-04-21T17:19:13.721Z,175.67
2019-04-21T17:21:34.223Z,178.03
2019-04-21T17:24:04.505Z,177.03
2019-04-21T17:26:37.436Z,177.33
2019-04-21T17:29:06.841Z,175.80
2019-04-21T17:31:37.164Z,176.30
2019-04-21T17:34:12.418Z,176.87
2019-04-21T17:36:39.259Z,174.80
2019-04-21T17:39:10.984Z,175.20
2019-04-21T17:41:55.997Z,183.60
2019-04-21T17:44:12.996Z,178.87
2019-04-21T17:46:50.015Z,176.90
2019-04-21T17:49:14.986Z,175.63
2019-04-21T17:52:11.431Z,174.23
2019-04-21T17:54:49.104Z,174.27
2019-04-21T17:57:37.961Z,175.43
2019-04-21T18:00:08.180Z,175.07
2019-04-21T18:02:41.683Z,180.03
2019-04-21T18:05:17.972Z,178.70
2019-04-21T18:07:46.766Z,177.80
2019-04-21T18:10:07.410Z,176.50
2019-04-21T18:12:35.950Z,176.87
2019-04-21T18:15:16.160Z,175.17
2019-04-21T18:17:27.107Z,176.40
2019-04-21T18:19:57.341Z,177.73
2019-04-21T18:22:54.706Z,180.77
2019-04-21T18:25:41.115Z,178.97
2019-04-21T18:27:58.725Z,179.83
2019-04-21T18:30:44.388Z,180.13
2019-04-21T18:33:23.544Z,177.30
2019-04-21T18:36:06.555Z,179.20
2019-04-21T18:39:10.038Z,178.30
2019-04-21T18:41:30.000Z,177.73
2019-04-21T18:44:30.305Z,179.50
2019-04-21T18:46:58.610Z,178.53
2019-04-21T18:49:24.957Z,177.50
2019-04-21T18:52:06.815Z,181.70
2019-04-21T18:54:46.109Z,177.80
2019-04-21T18:57:10.786Z,183.50
2019-04-21T18:59:36.100Z,180.23
2019-04-21T19:02:09.854Z,185.37
2019-04-21T19:04:37.577Z,181.00
2019-04-21T19:07:19.845Z,186.27
2019-04-21T19:10:14.373Z,181.67
2019-04-21T19:12:47.777Z,188.87
2019-04-21T19:15:02.595Z,184.13
2019-04-21T19:20:11.750Z,184.03
2019-04-21T19:22:38.423Z,181.17
2019-04-21T19:25:09.697Z,184.40
2019-04-21T19:27:38.304Z,183.00
2019-04-21T19:32:38.929Z,212.63
2019-04-21T19:34:59.399Z,204.87
2019-04-21T19:37:30.152Z,201.60
2019-04-21T19:40:11.886Z,214.37
2019-04-21T19:42:42.825Z,200.40
2019-04-21T19:45:19.142Z,204.87
2019-04-21T19:47:53.214Z,204.67
2019-04-21T19:50:30.964Z,198.00
2019-04-21T19:52:48.623Z,193.17
2019-04-21T19:55:12.064Z,200.50
2019-04-21T19:57:43.156Z,192.33
2019-04-21T20:00:14.064Z,203.57
2019-04-21T20:02:44.865Z,190.43
2019-04-21T20:05:24.177Z,197.53
2019-04-21T20:08:03.757Z,195.47
2019-04-21T20:10:39.525Z,199.13
2019-04-21T20:13:07.241Z,196.10
2019-04-21T20:15:41.636Z,200.17
2019-04-21T20:18:06.246Z,193.20
2019-04-21T20:20:24.867Z,193.27
2019-04-21T20:22:57.367Z,192.53
2019-04-21T20:25:28.711Z,190.37
2019-04-21T20:28:09.089Z,190.80
2019-04-21T20:30:49.003Z,197.00
2019-04-21T20:33:41.307Z,188.17
2019-04-21T20:38:16.128Z,197.10
2019-04-21T20:40:46.964Z,199.70
2019-04-21T20:43:28.513Z,208.97
2019-04-21T20:46:00.852Z,200.90
2019-04-21T20:48:20.026Z,198.23
2019-04-21T20:51:00.598Z,196.67
2019-04-21T20:53:32.884Z,205.67
2019-04-21T20:55:58.438Z,204.60
2019-04-21T20:58:34.815Z,199.83
2019-04-21T21:01:23.948Z,201.97
2019-04-21T21:03:46.076Z,201.13
2019-04-21T21:06:02.255Z,200.73
2019-04-21T21:08:40.311Z,201.87
2019-04-21T21:11:08.008Z,197.47
2019-04-21T21:13:44.387Z,191.37
2019-04-21T21:16:29.638Z,200.83
2019-04-21T21:19:11.203Z,197.97
2019-04-21T21:21:15.306Z,193.43
2019-04-21T21:23:51.280Z,192.57
2019-04-21T21:26:28.268Z,188.83
2019-04-21T21:28:45.962Z,204.13
2019-04-21T21:31:25.140Z,196.33
2019-04-21T21:36:27.380Z,191.90
2019-04-21T21:39:01.382Z,193.47
2019-04-21T21:41:22.344Z,196.60
2019-04-21T21:43:47.755Z,190.47
2019-04-21T21:46:39.011Z,190.87
2019-04-21T21:48:59.009Z,192.37
2019-04-21T21:51:33.062Z,191.83
2019-04-21T21:53:50.621Z,190.47
2019-04-21T21:56:20.653Z,200.13
2019-04-21T21:58:51.964Z,191.33
2019-04-21T22:01:31.842Z,191.27
2019-04-21T22:04:02.957Z,195.13
2019-04-21T22:06:34.538Z,191.27
2019-04-21T22:08:56.653Z,193.90
2019-04-21T22:11:26.503Z,192.67
2019-04-21T22:14:02.793Z,192.67
2019-04-21T22:16:38.857Z,199.07
2019-04-21T22:19:21.909Z,189.00
2019-04-21T22:21:47.731Z,189.90
2019-04-21T22:24:09.418Z,191.20
2019-04-21T22:26:34.793Z,189.00
2019-04-21T22:29:05.593Z,189.13
2019-04-21T22:31:38.914Z,190.93
2019-04-21T22:34:10.571Z,186.47
2019-04-21T22:36:48.711Z,189.80
2019-04-21T22:39:30.714Z,189.67
2019-04-21T22:41:46.601Z,187.93
2019-04-21T22:44:18.371Z,190.67
2019-04-21T22:46:58.416Z,186.53
2019-04-21T22:49:22.297Z,189.73
2019-04-21T22:51:53.853Z,186.50
2019-04-21T22:54:29.927Z,194.27
2019-04-21T22:57:04.758Z,184.13
2019-04-21T22:59:28.627Z,189.20
2019-04-21T23:01:59.521Z,193.77
2019-04-21T23:04:35.552Z,184.43
2019-04-21T23:07:07.014Z,187.60
2019-04-21T23:09:33.029Z,184.13
2019-04-21T23:12:03.618Z,185.57
2019-04-21T23:14:45.377Z,189.97
2019-04-21T23:17:29.280Z,185.17
2019-04-21T23:19:59.921Z,185.07
2019-04-21T23:22:29.283Z,185.03
2019-04-21T23:25:03.713Z,186.77
2019-04-21T23:27:26.342Z,185.37
2019-04-21T23:30:08.125Z,195.50
2019-04-21T23:32:30.407Z,186.57
2019-04-21T23:34:49.232Z,182.23
2019-04-21T23:37:23.267Z,187.43
2019-04-21T23:39:54.665Z,189.70
2019-04-21T23:42:30.516Z,191.80
2019-04-21T23:44:58.096Z,189.70
2019-04-21T23:47:35.580Z,182.03
2019-04-21T23:50:02.710Z,190.37
2019-04-21T23:52:27.962Z,184.93
2019-04-21T23:54:58.926Z,188.00
2019-04-21T23:57:35.866Z,181.73
